createdAt,value
2017-08-03T00:09:44.033Z,21
2017-08-03T00:19:44.000Z,22
2017-08-03T00:29:44.103Z,22
2017-08-03T00:39:44.213Z,23
2017-08-03T00:49:43.900Z,23
2017-08-03T00:59:44.243Z,27
2017-08-03T01:09:44.316Z,26
2017-08-03T01:19:44.408Z,26
2017-08-03T01:29:44.080Z,27
2017-08-03T01:39:44.331Z,27
2017-08-03T01:49:44.386Z,27
2017-08-03T01:59:44.514Z,28
2017-08-03T02:09:44.470Z,27
2017-08-03T02:19:44.341Z,29
2017-08-03T02:29:44.110Z,27
2017-08-03T02:39:44.181Z,29
2017-08-03T02:49:43.897Z,29
2017-08-03T02:59:43.850Z,27
2017-08-03T03:09:43.910Z,26
2017-08-03T03:19:43.881Z,25
2017-08-03T03:29:43.986Z,23
2017-08-03T03:39:43.987Z,20
2017-08-03T03:49:44.016Z,18
2017-08-03T03:59:43.945Z,16
2017-08-03T04:09:43.961Z,15
2017-08-03T04:19:44.019Z,13
2017-08-03T04:29:44.000Z,13
2017-08-03T04:39:43.925Z,14
2017-08-03T04:49:44.044Z,12
2017-08-03T04:59:43.959Z,13
2017-08-03T05:09:43.920Z,14
2017-08-03T05:19:43.957Z,14
2017-08-03T05:29:43.955Z,14
2017-08-03T05:39:44.008Z,13
2017-08-03T05:49:43.928Z,12
2017-08-03T05:59:44.039Z,11
2017-08-03T06:09:44.021Z,12
2017-08-03T06:19:43.922Z,10
2017-08-03T06:29:44.067Z,11
2017-08-03T06:39:44.089Z,11
2017-08-03T06:49:43.849Z,12
2017-08-03T06:59:43.888Z,12
2017-08-03T07:09:43.906Z,10
2017-08-03T07:19:43.896Z,10
2017-08-03T07:29:43.911Z,7
2017-08-03T07:39:43.968Z,6
2017-08-03T07:49:44.017Z,6
2017-08-03T07:59:43.881Z,4
2017-08-03T08:09:43.990Z,4
2017-08-03T08:19:43.936Z,3
2017-08-03T08:29:43.933Z,3
2017-08-03T08:39:43.855Z,4
2017-08-03T08:49:43.958Z,4
2017-08-03T08:59:43.877Z,5
2017-08-03T09:09:43.948Z,5
2017-08-03T09:19:43.962Z,5
2017-08-03T09:29:43.909Z,3
2017-08-03T09:39:43.955Z,3
2017-08-03T09:49:44.015Z,3
2017-08-03T09:59:43.969Z,4
2017-08-03T10:09:44.020Z,3
2017-08-03T10:19:44.057Z,3
2017-08-03T10:29:44.039Z,3
2017-08-03T10:39:43.945Z,3
2017-08-03T10:49:44.055Z,3
2017-08-03T10:59:43.964Z,2
2017-08-03T11:09:43.903Z,3
2017-08-03T11:19:44.025Z,4
2017-08-03T11:29:43.947Z,4
2017-08-03T11:39:43.973Z,4
2017-08-03T11:49:44.001Z,4
2017-08-03T11:59:44.230Z,5
2017-08-03T12:09:44.118Z,3
2017-08-03T12:19:44.068Z,3
2017-08-03T12:29:43.965Z,4
2017-08-03T12:39:44.127Z,2
2017-08-03T12:49:44.028Z,2
2017-08-03T12:59:44.309Z,2
2017-08-03T13:09:44.036Z,2
2017-08-03T13:19:44.056Z,3
2017-08-03T13:29:45.358Z,3
2017-08-03T13:39:44.037Z,3
2017-08-03T13:49:44.142Z,3
2017-08-03T13:59:44.052Z,3
2017-08-03T14:09:44.104Z,3
2017-08-03T14:19:44.039Z,4
2017-08-03T14:29:43.996Z,4
2017-08-03T14:39:44.093Z,4
2017-08-03T14:49:44.060Z,4
2017-08-03T14:59:44.184Z,3
2017-08-03T15:09:44.053Z,3
2017-08-03T15:19:44.005Z,3
2017-08-03T15:29:44.186Z,3
2017-08-03T15:39:44.031Z,2
2017-08-03T15:49:44.106Z,2
2017-08-03T15:59:44.150Z,2
2017-08-03T16:09:44.033Z,2
2017-08-03T16:19:44.070Z,2
2017-08-03T16:29:44.362Z,2
2017-08-03T16:39:45.087Z,3
2017-08-03T16:49:44.069Z,3
2017-08-03T16:59:44.196Z,3
2017-08-03T17:09:44.218Z,2
2017-08-03T17:19:45.070Z,3
2017-08-03T17:29:44.032Z,3
2017-08-03T17:39:44.130Z,3
2017-08-03T17:49:44.160Z,4
2017-08-03T17:59:44.174Z,2
2017-08-03T18:09:44.015Z,3
2017-08-03T18:19:44.392Z,3
2017-08-03T18:29:44.066Z,2
2017-08-03T18:39:44.039Z,2
2017-08-03T18:49:44.048Z,2
2017-08-03T18:59:44.010Z,2
2017-08-03T19:09:44.208Z,2
2017-08-03T19:19:44.100Z,3
2017-08-03T19:29:44.307Z,3
2017-08-03T19:39:44.132Z,3
2017-08-03T19:49:44.560Z,2
2017-08-03T19:59:44.270Z,3
2017-08-03T20:09:44.119Z,3
2017-08-03T20:19:44.127Z,2
2017-08-03T20:29:44.141Z,3
2017-08-03T20:39:44.245Z,3
2017-08-03T20:49:44.127Z,2
2017-08-03T20:59:44.075Z,2
2017-08-03T21:09:44.171Z,2
2017-08-03T21:19:50.113Z,2
2017-08-03T21:29:44.013Z,3
2017-08-03T21:40:00.517Z,2
2017-08-03T21:49:44.167Z,3
2017-08-03T21:59:44.114Z,2
2017-08-03T22:09:44.173Z,2
2017-08-03T22:19:44.119Z,2
2017-08-03T22:29:44.042Z,2
2017-08-03T22:39:44.156Z,2
2017-08-03T22:49:44.127Z,2
2017-08-03T22:59:44.093Z,2
2017-08-03T23:09:44.116Z,2
2017-08-03T23:19:44.311Z,2
2017-08-03T23:29:44.087Z,2
2017-08-03T23:39:47.193Z,2
2017-08-03T23:49:44.135Z,2
2017-08-03T23:59:44.097Z,2
